Time;durP1;ratioP1;P1;durP2;ratioP2;P2;SDS_P1;SDS_P2;PMS_P1;PMS_P2;Temp;Humidity;BMP_temperature;BMP_pressure;BME280_temperature;BME280_humidity;BME280_pressure;Samples;Min_cycle;Max_cycle;Signal;HPM_P1;HPM_P2
2022/06/07 00:01:05;;;;;;;;;;;;;;;17.95;62.65;100703.41;5073188;28;949;-60
2022/06/07 00:03:31;;;;;;;;;;;;;;;17.90;61.43;100697.88;5042981;28;1195;-61
2022/06/07 00:05:56;;;;;;;;;;;;;;;17.43;61.15;100711.88;5066769;28;968;-61
2022/06/07 00:08:22;;;;;;;;;;;;;;;17.41;59.83;100700.31;5066520;28;953;-61
2022/06/07 00:10:47;;;;;;;;;;;;;;;17.66;57.89;100704.06;5070232;28;1158;-61
2022/06/07 00:13:13;;;;;;;;;;;;;;;17.42;56.36;100696.47;5072662;28;1902;-61
2022/06/07 00:15:39;;;;;;;;;;;;;;;17.39;54.41;100699.78;5072508;28;1060;-61
2022/06/07 00:18:04;;;;;;;;;;;;;;;17.13;54.03;100692.75;5069921;28;992;-63
2022/06/07 00:20:30;;;;;;;;;;;;;;;17.42;52.01;100688.22;5063523;28;1098;-61
2022/06/07 00:22:55;;;;;;;;;;;;;;;17.15;52.24;100698.75;5060908;28;1116;-61
2022/06/07 00:25:21;;;;;;;;;;;;;;;17.14;52.64;100688.88;5072302;28;1234;-61
2022/06/07 00:27:47;;;;;;;;;;;;;;;17.04;53.55;100678.72;5072069;28;1154;-62
2022/06/07 00:30:12;;;;;;;;;;;;;;;17.11;55.28;100682.03;5068756;28;1099;-61
2022/06/07 00:32:38;;;;;;;;;;;;;;;17.63;57.12;100679.88;5071537;28;1913;-61
2022/06/07 00:35:03;;;;;;;;;;;;;;;17.76;59.59;100686.69;5052694;28;1310;-61
2022/06/07 00:37:29;;;;;;;;;;;;;;;17.90;60.87;100679.44;5051865;28;1230;-62
2022/06/07 00:39:54;;;;;;;;;;;;;;;17.67;63.06;100689.22;5071322;28;1206;-61
2022/06/07 00:42:20;;;;;;;;;;;;;;;17.49;64.67;100685.19;5069354;28;1234;-61
2022/06/07 00:44:46;;;;;;;;;;;;;;;17.28;66.35;100681.69;5069414;28;1213;-61
2022/06/07 00:47:17;;;;;;;;;;;;;;;17.83;65.56;100686.38;5049353;28;1269;-61
2022/06/07 00:50:15;;;;;;;;;;;;;;;17.98;65.42;100691.81;5070922;28;1238;-61
2022/06/07 00:52:40;;;;;;;;;;;;;;;17.60;66.45;100688.72;5014567;28;1898;-61
2022/06/07 00:55:08;;;;;;;;;;;;;;;17.53;66.40;100685.41;5051764;28;1420;-61
2022/06/07 00:58:00;;;;;;;;;;;;;;;17.75;67.86;100674.88;5070318;28;1181;-61
2022/06/07 01:00:37;;;;;;;;;;;;;;;18.23;67.01;100673.47;5050649;28;1681;-61
2022/06/07 01:03:03;;;;;;;;;;;;;;;18.12;67.02;100675.50;5052533;28;1281;-61
2022/06/07 01:05:28;;;;;;;;;;;;;;;17.90;67.11;100675.88;5042899;28;1308;-61
2022/06/07 01:10:47;;;;;;;;;;;;;;;17.67;67.95;100663.63;5067272;28;1166;-61
2022/06/07 01:13:19;;;;;;;;;;;;;;;17.88;67.85;100662.41;5059507;28;1905;-62
2022/06/07 01:15:46;;;;;;;;;;;;;;;18.15;68.00;100665.84;5067189;28;1186;-62
2022/06/07 01:18:13;;;;;;;;;;;;;;;18.41;67.00;100658.19;5069264;28;1198;-61
2022/06/07 01:20:41;;;;;;;;;;;;;;;18.12;67.61;100673.56;5050590;28;1280;-62
2022/06/07 01:23:07;;;;;;;;;;;;;;;17.96;67.03;100674.75;5052045;28;1336;-61
2022/06/07 01:25:34;;;;;;;;;;;;;;;17.70;66.43;100679.59;5070304;28;1174;-61
2022/06/07 01:28:01;;;;;;;;;;;;;;;17.72;65.78;100678.16;5056965;28;1327;-63
2022/06/07 01:30:26;;;;;;;;;;;;;;;17.90;66.67;100686.88;5057946;28;1201;-61
2022/06/07 01:32:52;;;;;;;;;;;;;;;17.98;68.12;100677.22;5057914;28;2014;-61
2022/06/07 01:35:17;;;;;;;;;;;;;;;18.29;68.21;100675.09;5071110;28;1146;-61
2022/06/07 01:37:43;;;;;;;;;;;;;;;18.21;67.95;100675.69;5049779;28;1362;-62
2022/06/07 01:42:52;;;;;;;;;;;;;;;17.91;67.14;100696.81;5066542;28;1021;-62
2022/06/07 01:45:18;;;;;;;;;;;;;;;17.91;67.05;100694.06;5050297;28;1262;-62
2022/06/07 01:47:44;;;;;;;;;;;;;;;17.84;66.79;100675.09;5058509;28;1215;-61
2022/06/07 01:50:09;;;;;;;;;;;;;;;17.88;66.64;100675.31;5070634;28;1118;-61
2022/06/07 01:52:35;;;;;;;;;;;;;;;17.93;66.79;100670.63;5060340;28;1898;-61
2022/06/07 01:55:29;;;;;;;;;;;;;;;18.15;66.96;100682.34;5066894;28;1197;-62
2022/06/07 01:58:06;;;;;;;;;;;;;;;18.26;67.90;100686.66;5045402;28;1167;-61
2022/06/07 02:00:32;;;;;;;;;;;;;;;18.45;67.91;100690.38;5057864;28;1268;-61
2022/06/07 02:02:58;;;;;;;;;;;;;;;18.07;67.24;100701.09;5055133;28;1150;-60
2022/06/07 02:05:23;;;;;;;;;;;;;;;17.48;63.86;100693.72;5066727;28;1048;-60
2022/06/07 02:07:57;;;;;;;;;;;;;;;17.13;60.15;100698.22;5055708;28;1311;-61
2022/06/07 02:10:36;;;;;;;;;;;;;;;16.93;56.13;100703.50;5049208;28;1361;-61
2022/06/07 02:13:08;;;;;;;;;;;;;;;16.67;52.86;100701.84;5048791;28;1971;-61
2022/06/07 02:15:33;;;;;;;;;;;;;;;16.92;51.25;100701.03;5055068;28;1300;-60
2022/06/07 02:17:59;;;;;;;;;;;;;;;17.51;51.44;100709.63;5071205;28;1183;-61
2022/06/07 02:20:45;;;;;;;;;;;;;;;17.63;54.90;100704.63;5069655;28;1207;-60
2022/06/07 02:23:11;;;;;;;;;;;;;;;17.87;57.29;100709.47;5049017;28;1921;-61
2022/06/07 02:25:43;;;;;;;;;;;;;;;16.95;61.59;100705.94;5058054;28;1246;-61
2022/06/07 02:28:12;;;;;;;;;;;;;;;16.69;63.68;100708.72;5041314;28;1294;-60
2022/06/07 02:30:38;;;;;;;;;;;;;;;17.35;65.64;100703.34;5047155;28;1014;-60
2022/06/07 02:33:03;;;;;;;;;;;;;;;18.28;63.43;100701.75;5070694;28;1913;-60
2022/06/07 02:35:29;;;;;;;;;;;;;;;18.22;64.76;100699.38;5049070;28;1230;-60
2022/06/07 02:37:54;;;;;;;;;;;;;;;18.40;64.61;100711.63;5052039;28;1226;-60
2022/06/07 02:40:20;;;;;;;;;;;;;;;17.77;64.39;100700.16;5069201;28;1320;-61
2022/06/07 02:42:45;;;;;;;;;;;;;;;17.03;63.37;100699.91;5068314;28;1257;-61
2022/06/07 02:45:11;;;;;;;;;;;;;;;16.85;62.90;100700.47;5065440;28;1276;-61
2022/06/07 02:47:36;;;;;;;;;;;;;;;16.97;64.45;100705.66;5067069;28;1198;-62
2022/06/07 02:50:09;;;;;;;;;;;;;;;17.06;64.16;100685.59;5054518;28;1207;-61
2022/06/07 02:52:38;;;;;;;;;;;;;;;17.17;66.01;100689.16;5047202;28;1906;-62
2022/06/07 02:55:13;;;;;;;;;;;;;;;17.34;66.10;100690.75;5057845;28;1343;-60
2022/06/07 02:57:38;;;;;;;;;;;;;;;17.43;67.75;100694.53;5069338;28;1885;-62
2022/06/07 03:00:05;;;;;;;;;;;;;;;17.75;68.25;100685.88;5071326;28;1230;-61
2022/06/07 03:02:31;;;;;;;;;;;;;;;17.86;68.31;100685.81;5053506;28;1059;-62
2022/06/07 03:04:57;;;;;;;;;;;;;;;17.90;68.42;100675.88;5066182;28;1388;-61
2022/06/07 03:07:23;;;;;;;;;;;;;;;18.09;68.90;100681.53;5070158;28;996;-61
2022/06/07 03:09:48;;;;;;;;;;;;;;;18.08;68.57;100688.97;5038840;28;1201;-60
2022/06/07 03:12:14;;;;;;;;;;;;;;;17.86;67.87;100681.13;5067408;28;1906;-60
2022/06/07 03:14:40;;;;;;;;;;;;;;;17.71;66.98;100689.47;5067931;28;1056;-60
2022/06/07 03:17:06;;;;;;;;;;;;;;;17.82;65.48;100679.22;5045036;28;1114;-60
2022/06/07 03:19:34;;;;;;;;;;;;;;;17.75;67.27;100680.38;5073345;28;1111;-60
2022/06/07 03:22:01;;;;;;;;;;;;;;;18.06;68.67;100682.13;5057479;28;1336;-60
2022/06/07 03:24:27;;;;;;;;;;;;;;;18.44;68.47;100674.94;5057034;28;1079;-60
2022/06/07 03:26:54;;;;;;;;;;;;;;;18.37;68.58;100677.22;5057090;28;1341;-60
2022/06/07 03:29:20;;;;;;;;;;;;;;;18.36;68.37;100688.53;5051763;28;1323;-60
2022/06/07 03:31:46;;;;;;;;;;;;;;;18.24;68.13;100686.13;5049213;28;1971;-60
2022/06/07 03:34:13;;;;;;;;;;;;;;;18.19;67.36;100689.75;5052242;28;1310;-61
2022/06/07 03:36:40;;;;;;;;;;;;;;;18.21;66.66;100689.44;5045888;28;1159;-61
2022/06/07 03:39:07;;;;;;;;;;;;;;;18.18;67.00;100695.53;5053251;28;1381;-59
2022/06/07 03:41:35;;;;;;;;;;;;;;;18.14;67.47;100703.53;5045756;28;1136;-61
2022/06/07 03:44:08;;;;;;;;;;;;;;;18.23;67.17;100703.75;5056323;28;1228;-61
2022/06/07 03:46:35;;;;;;;;;;;;;;;18.22;66.13;100710.38;5050657;28;1202;-60
2022/06/07 03:49:01;;;;;;;;;;;;;;;17.88;65.36;100700.09;5044629;28;1340;-60
2022/06/07 03:51:28;;;;;;;;;;;;;;;17.57;64.20;100701.09;5069123;28;1975;-60
2022/06/07 03:53:53;;;;;;;;;;;;;;;17.62;62.87;100708.47;5047932;28;1000;-61
2022/06/07 03:56:21;;;;;;;;;;;;;;;17.76;60.41;100701.25;5051771;28;1095;-62
2022/06/07 03:58:46;;;;;;;;;;;;;;;17.37;59.19;100701.97;5042684;28;1095;-61
2022/06/07 04:01:15;;;;;;;;;;;;;;;16.94;58.01;100693.31;5055197;28;1130;-62
2022/06/07 04:03:43;;;;;;;;;;;;;;;17.23;54.74;100687.19;5041680;28;1396;-60
2022/06/07 04:06:15;;;;;;;;;;;;;;;17.18;53.75;100678.97;5061893;28;1050;-61
2022/06/07 04:08:41;;;;;;;;;;;;;;;17.26;53.02;100681.97;5043831;28;1198;-61
2022/06/07 04:11:06;;;;;;;;;;;;;;;17.37;53.86;100680.00;5059739;28;1040;-61
2022/06/07 04:13:50;;;;;;;;;;;;;;;17.54;56.36;100684.31;5038386;28;1170;-60
2022/06/07 04:16:16;;;;;;;;;;;;;;;17.97;58.35;100672.84;5068566;28;1026;-61
2022/06/07 04:18:51;;;;;;;;;;;;;;;17.82;61.54;100669.03;5055875;28;1446;-61
2022/06/07 04:21:21;;;;;;;;;;;;;;;17.54;64.44;100663.13;5037780;28;1056;-63
2022/06/07 04:23:48;;;;;;;;;;;;;;;17.88;64.90;100672.56;5056405;28;1348;-64
2022/06/07 04:26:15;;;;;;;;;;;;;;;18.36;64.00;100667.31;5047511;28;1664;-61
2022/06/07 04:28:44;;;;;;;;;;;;;;;18.09;65.86;100665.03;5046658;28;1068;-61
2022/06/07 04:31:10;;;;;;;;;;;;;;;17.87;66.50;100658.00;5045201;28;1143;-62
2022/06/07 04:33:36;;;;;;;;;;;;;;;17.90;67.17;100662.13;5048989;28;2024;-61
2022/06/07 04:42:51;;;;;;;;;;;;;;;18.61;66.68;100651.69;5074986;28;1088;-64
2022/06/07 04:45:24;;;;;;;;;;;;;;;18.37;67.47;100657.94;5049957;28;1114;-66
2022/06/07 04:48:01;;;;;;;;;;;;;;;18.22;66.83;100658.09;5055720;28;1245;-65
2022/06/07 04:50:30;;;;;;;;;;;;;;;17.70;65.29;100661.16;5072455;28;1048;-62
2022/06/07 04:52:56;;;;;;;;;;;;;;;17.42;63.78;100670.91;5047726;28;1977;-63
2022/06/07 04:55:24;;;;;;;;;;;;;;;17.83;58.32;100669.88;5045451;28;1398;-63
2022/06/07 04:57:50;;;;;;;;;;;;;;;17.56;55.50;100666.44;5062808;28;1024;-64
2022/06/07 05:00:18;;;;;;;;;;;;;;;17.49;53.50;100665.94;5040512;28;1607;-62
2022/06/07 05:02:50;;;;;;;;;;;;;;;17.33;52.22;100673.41;5056627;28;1352;-62
2022/06/07 05:05:16;;;;;;;;;;;;;;;17.27;51.19;100674.53;5051201;28;1208;-63
2022/06/07 05:07:42;;;;;;;;;;;;;;;16.99;50.87;100674.09;5054000;28;1937;-60
2022/06/07 05:10:12;;;;;;;;;;;;;;;17.22;51.35;100671.81;5043899;28;1322;-60
2022/06/07 05:12:42;;;;;;;;;;;;;;;17.41;52.70;100675.56;5062358;28;1941;-59
2022/06/07 05:15:15;;;;;;;;;;;;;;;17.54;54.59;100665.06;5052673;28;1155;-60
2022/06/07 05:17:54;;;;;;;;;;;;;;;17.49;58.09;100678.84;5047080;28;1151;-61
2022/06/07 05:20:22;;;;;;;;;;;;;;;17.72;60.27;100675.41;5059180;28;1103;-60
2022/06/07 05:22:52;;;;;;;;;;;;;;;18.13;61.16;100686.22;5051764;28;1010;-61
2022/06/07 05:25:19;;;;;;;;;;;;;;;18.15;62.70;100691.44;5045724;28;1202;-61
2022/06/07 05:27:47;;;;;;;;;;;;;;;17.96;64.41;100685.75;5050981;28;1403;-61
2022/06/07 05:30:16;;;;;;;;;;;;;;;17.75;65.73;100688.63;5044594;28;1250;-60
2022/06/07 05:32:51;;;;;;;;;;;;;;;17.83;66.72;100686.38;5047473;28;1966;-60
2022/06/07 05:35:26;;;;;;;;;;;;;;;18.39;65.36;100688.75;5043650;28;1190;-62
2022/06/07 05:38:10;;;;;;;;;;;;;;;18.69;64.98;100680.50;5051228;28;1155;-63
2022/06/07 05:40:36;;;;;;;;;;;;;;;18.49;65.93;100681.53;5056191;28;1310;-62
2022/06/07 05:43:03;;;;;;;;;;;;;;;18.23;66.65;100667.97;5053454;28;1396;-64
2022/06/07 05:45:38;;;;;;;;;;;;;;;17.97;66.62;100676.41;5048055;28;1143;-62
2022/06/07 05:48:17;;;;;;;;;;;;;;;18.08;67.24;100682.66;5047143;28;1661;-62
2022/06/07 05:50:48;;;;;;;;;;;;;;;18.44;66.32;100688.72;5064945;28;1063;-65
2022/06/07 05:53:14;;;;;;;;;;;;;;;18.80;65.23;100677.38;5049728;28;1972;-62
2022/06/07 05:55:40;;;;;;;;;;;;;;;19.10;64.60;100677.38;5047227;28;1345;-64
2022/06/07 05:58:07;;;;;;;;;;;;;;;18.90;61.66;100682.00;5056072;28;1270;-62
2022/06/07 06:00:34;;;;;;;;;;;;;;;18.28;58.28;100676.19;5054077;28;1326;-62
2022/06/07 06:03:00;;;;;;;;;;;;;;;17.77;54.40;100672.66;5054375;28;1465;-62
2022/06/07 06:05:46;;;;;;;;;;;;;;;17.35;52.07;100679.47;5066381;28;1281;-62
2022/06/07 06:11:10;;;;;;;;;;;;;;;17.67;45.51;100680.13;5055318;28;1170;-63
2022/06/07 06:13:38;;;;;;;;;;;;;;;17.21;44.58;100671.00;5065067;28;1905;-64
2022/06/07 06:16:10;;;;;;;;;;;;;;;17.29;44.11;100658.59;5040108;28;1256;-62
2022/06/07 06:18:43;;;;;;;;;;;;;;;16.99;45.21;100659.53;5046150;28;1247;-61
2022/06/07 06:21:08;;;;;;;;;;;;;;;17.24;45.96;100659.44;5038342;28;1103;-60
2022/06/07 06:23:36;;;;;;;;;;;;;;;17.11;47.19;100660.06;5051213;28;1249;-63
2022/06/07 06:26:06;;;;;;;;;;;;;;;17.07;47.72;100658.97;5057592;28;1145;-62
2022/06/07 06:28:32;;;;;;;;;;;;;;;17.32;48.09;100655.28;5052626;28;1287;-61
2022/06/07 06:31:01;;;;;;;;;;;;;;;17.06;48.89;100658.13;5052842;28;1131;-61
2022/06/07 06:33:28;;;;;;;;;;;;;;;16.87;49.81;100662.53;5052626;28;1913;-63
2022/06/07 06:35:54;;;;;;;;;;;;;;;17.44;49.06;100658.50;5071595;28;1100;-62
2022/06/07 06:38:27;;;;;;;;;;;;;;;17.54;50.88;100648.59;5041212;28;1352;-60
2022/06/07 06:40:53;;;;;;;;;;;;;;;17.82;53.11;100643.47;5058413;28;1223;-64
2022/06/07 06:43:20;;;;;;;;;;;;;;;17.34;56.37;100647.56;5045636;28;1325;-67
2022/06/07 06:46:09;;;;;;;;;;;;;;;16.70;60.45;100649.94;5051849;28;1364;-61
2022/06/07 06:48:36;;;;;;;;;;;;;;;16.89;62.01;100655.69;5046211;28;1214;-62
2022/06/07 06:51:04;;;;;;;;;;;;;;;17.02;62.98;100657.03;5055804;28;1435;-64
2022/06/07 06:53:30;;;;;;;;;;;;;;;16.89;63.30;100663.94;5049455;28;1977;-64
2022/06/07 06:56:03;;;;;;;;;;;;;;;17.12;61.34;100653.44;5057929;28;1282;-64
2022/06/07 06:58:30;;;;;;;;;;;;;;;16.86;61.89;100656.22;5055211;28;1129;-62
2022/06/07 07:01:00;;;;;;;;;;;;;;;17.72;59.02;100664.41;5065276;28;1411;-63
2022/06/07 07:03:26;;;;;;;;;;;;;;;18.03;58.17;100657.94;5053966;28;1253;-65
2022/06/07 07:05:52;;;;;;;;;;;;;;;18.15;58.29;100661.16;5046124;28;1210;-64
2022/06/07 07:08:18;;;;;;;;;;;;;;;17.74;59.02;100651.22;5041592;28;2100;-65
2022/06/07 07:10:44;;;;;;;;;;;;;;;16.96;60.50;100658.16;5061840;28;1261;-63
2022/06/07 07:13:09;;;;;;;;;;;;;;;17.00;64.49;100658.41;5066099;28;1985;-68
2022/06/07 07:15:37;;;;;;;;;;;;;;;18.39;62.82;100660.41;5038413;28;1356;-66
2022/06/07 07:18:10;;;;;;;;;;;;;;;18.39;62.51;100672.22;5035233;28;1147;-66
2022/06/07 07:20:44;;;;;;;;;;;;;;;17.87;60.76;100671.75;5051850;28;1292;-65
2022/06/07 07:23:10;;;;;;;;;;;;;;;16.64;59.08;100672.22;5045115;28;999;-63
2022/06/07 07:25:36;;;;;;;;;;;;;;;16.70;57.58;100682.06;5042986;28;1174;-65
2022/06/07 07:28:03;;;;;;;;;;;;;;;17.55;55.62;100673.03;5047289;28;1388;-65
2022/06/07 07:30:31;;;;;;;;;;;;;;;18.25;56.84;100677.56;5038138;28;1268;-64
2022/06/07 07:32:57;;;;;;;;;;;;;;;18.23;59.08;100671.56;5048834;28;1901;-64
2022/06/07 07:35:23;;;;;;;;;;;;;;;18.22;60.99;100669.91;5037534;28;1319;-67
2022/06/07 07:37:57;;;;;;;;;;;;;;;17.45;62.00;100675.84;5048891;28;2206;-64
2022/06/07 07:40:23;;;;;;;;;;;;;;;16.83;62.36;100672.44;5040518;28;1016;-65
2022/06/07 07:42:48;;;;;;;;;;;;;;;16.76;63.22;100670.81;5050127;28;1151;-66
2022/06/07 07:45:23;;;;;;;;;;;;;;;17.27;67.90;100667.09;5029896;28;1346;-64
2022/06/07 07:47:53;;;;;;;;;;;;;;;17.22;66.63;100658.91;5051878;28;1207;-66
2022/06/07 07:50:18;;;;;;;;;;;;;;;16.90;66.26;100671.09;5050643;28;1083;-67
2022/06/07 07:52:48;;;;;;;;;;;;;;;17.02;64.59;100668.03;5038083;28;1913;-67
2022/06/07 07:55:14;;;;;;;;;;;;;;;16.89;64.77;100669.44;5039756;28;1215;-65
2022/06/07 07:57:41;;;;;;;;;;;;;;;17.30;63.80;100681.41;5044849;28;1374;-65
2022/06/07 08:00:10;;;;;;;;;;;;;;;18.26;61.64;100667.41;5041064;28;1114;-63
2022/06/07 08:02:38;;;;;;;;;;;;;;;18.30;63.21;100671.22;5045690;28;1008;-63
2022/06/07 08:05:10;;;;;;;;;;;;;;;18.63;64.13;100671.47;5048186;28;1122;-64
2022/06/07 08:07:35;;;;;;;;;;;;;;;18.02;63.78;100670.88;5040065;28;1067;-63
2022/06/07 08:10:01;;;;;;;;;;;;;;;17.16;61.00;100675.69;5038412;28;964;-62
2022/06/07 08:12:27;;;;;;;;;;;;;;;16.31;64.12;100658.75;5040842;28;1975;-61
2022/06/07 08:14:53;;;;;;;;;;;;;;;16.82;66.87;100670.81;5050154;28;1234;-63
2022/06/07 08:17:18;;;;;;;;;;;;;;;17.26;64.35;100687.47;5065638;28;1053;-65
2022/06/07 08:19:44;;;;;;;;;;;;;;;17.84;60.51;100677.00;5065538;28;1064;-67
2022/06/07 08:22:09;;;;;;;;;;;;;;;17.26;60.38;100670.97;5065876;28;1107;-63
2022/06/07 08:24:36;;;;;;;;;;;;;;;16.56;61.43;100676.31;5068915;28;1091;-64
2022/06/07 08:27:02;;;;;;;;;;;;;;;16.92;61.58;100681.78;5067435;28;1048;-63
2022/06/07 08:29:27;;;;;;;;;;;;;;;17.95;59.63;100675.88;5070512;28;1127;-64
2022/06/07 08:31:53;;;;;;;;;;;;;;;17.98;60.91;100678.06;5071244;28;1906;-63
2022/06/07 08:39:45;;;;;;;;;;;;;;;16.64;61.78;100670.28;5061057;28;1115;-64
2022/06/07 08:42:40;;;;;;;;;;;;;;;17.00;67.86;100670.25;5063645;28;1083;-65
2022/06/07 08:45:08;;;;;;;;;;;;;;;17.94;65.81;100669.53;5048487;28;1015;-64
2022/06/07 08:47:38;;;;;;;;;;;;;;;18.31;64.76;100681.09;5072239;28;1107;-64
2022/06/07 08:50:17;;;;;;;;;;;;;;;18.28;63.85;100676.19;5064285;28;1032;-65
2022/06/07 08:52:42;;;;;;;;;;;;;;;17.38;62.94;100669.84;5063611;28;1968;-63
2022/06/07 08:55:15;;;;;;;;;;;;;;;16.87;62.65;100662.53;5071507;28;953;-62
2022/06/07 08:57:41;;;;;;;;;;;;;;;17.05;64.43;100669.41;5070895;28;1129;-59
2022/06/07 09:00:14;;;;;;;;;;;;;;;17.30;66.36;100656.69;5050210;28;1110;-58
2022/06/07 09:02:54;;;;;;;;;;;;;;;17.01;65.78;100669.16;5075593;28;1015;-58
2022/06/07 09:05:19;;;;;;;;;;;;;;;16.91;66.78;100661.75;5050195;28;1154;-59
2022/06/07 09:07:44;;;;;;;;;;;;;;;17.05;66.10;100667.47;5067258;28;858;-59
2022/06/07 09:12:59;;;;;;;;;;;;;;;17.37;67.14;100663.50;5059574;28;1914;-58
2022/06/07 09:15:25;;;;;;;;;;;;;;;17.55;66.70;100647.47;5060156;28;1147;-60
2022/06/07 09:17:55;;;;;;;;;;;;;;;17.68;66.43;100654.28;5065250;28;969;-60
2022/06/07 09:20:22;;;;;;;;;;;;;;;17.93;65.73;100656.06;5047265;28;1132;-59
2022/06/07 09:22:50;;;;;;;;;;;;;;;18.01;65.04;100655.47;5052738;28;1099;-59
2022/06/07 09:25:17;;;;;;;;;;;;;;;17.88;65.80;100653.31;5060744;28;1155;-61
2022/06/07 09:27:45;;;;;;;;;;;;;;;17.94;65.27;100660.47;5047240;28;1330;-60
2022/06/07 09:30:10;;;;;;;;;;;;;;;18.25;64.39;100661.06;5060196;28;1100;-59
2022/06/07 09:32:36;;;;;;;;;;;;;;;17.97;65.31;100646.16;5067128;28;1918;-59
2022/06/07 09:35:03;;;;;;;;;;;;;;;17.82;65.83;100654.47;5070620;28;1004;-60
2022/06/07 09:37:47;;;;;;;;;;;;;;;17.85;66.05;100656.66;5076014;28;1194;-59
2022/06/07 09:40:16;;;;;;;;;;;;;;;17.84;65.74;100655.84;5053190;28;1010;-59
2022/06/07 09:42:41;;;;;;;;;;;;;;;17.93;65.85;100653.31;5067515;28;1111;-60
2022/06/07 09:45:27;;;;;;;;;;;;;;;18.01;65.70;100643.66;5071606;28;1000;-57
2022/06/07 09:47:53;;;;;;;;;;;;;;;18.26;64.81;100650.88;5064170;28;1689;-58
2022/06/07 09:50:31;;;;;;;;;;;;;;;18.60;63.79;100650.03;5065806;28;1117;-60
2022/06/07 09:52:58;;;;;;;;;;;;;;;18.25;64.44;100646.50;5063812;28;1922;-59
2022/06/07 09:55:32;;;;;;;;;;;;;;;17.76;64.53;100660.00;5071773;28;964;-60
2022/06/07 09:57:57;;;;;;;;;;;;;;;17.48;63.93;100636.78;5052100;28;1136;-59
2022/06/07 10:00:41;;;;;;;;;;;;;;;17.56;62.00;100640.88;5066813;28;957;-61
2022/06/07 10:03:07;;;;;;;;;;;;;;;17.98;59.10;100638.69;5058218;28;945;-58
2022/06/07 10:05:33;;;;;;;;;;;;;;;17.54;59.11;100626.59;5070503;28;961;-59
2022/06/07 10:08:19;;;;;;;;;;;;;;;17.40;58.96;100626.38;5069727;28;1051;-58
2022/06/07 10:10:51;;;;;;;;;;;;;;;17.60;57.84;100625.47;5023010;28;1234;-58
2022/06/07 10:13:35;;;;;;;;;;;;;;;17.85;56.60;100623.66;5065735;28;1914;-58
2022/06/07 10:16:05;;;;;;;;;;;;;;;17.71;56.29;100631.72;5064150;28;1199;-58
2022/06/07 10:18:51;;;;;;;;;;;;;;;17.74;55.98;100622.88;5035216;28;1104;-58
2022/06/07 10:21:35;;;;;;;;;;;;;;;17.94;55.36;100617.28;5048929;28;1052;-58
2022/06/07 10:24:04;;;;;;;;;;;;;;;17.55;55.94;100611.75;5047067;28;1032;-58
2022/06/07 10:26:37;;;;;;;;;;;;;;;17.65;55.36;100589.66;5070606;28;1024;-58
2022/06/07 10:29:18;;;;;;;;;;;;;;;17.76;55.02;100601.44;5074687;28;961;-58
2022/06/07 10:31:54;;;;;;;;;;;;;;;17.33;56.38;100614.88;5069494;28;1906;-58
2022/06/07 10:34:40;;;;;;;;;;;;;;;17.37;56.22;100602.22;5070184;28;1142;-58
2022/06/07 10:37:28;;;;;;;;;;;;;;;17.42;55.47;100600.25;5051394;28;953;-58
2022/06/07 10:40:12;;;;;;;;;;;;;;;17.72;54.93;100603.09;5053045;28;1060;-58
2022/06/07 10:42:51;;;;;;;;;;;;;;;17.59;55.21;100590.81;5063146;28;1102;-58
2022/06/07 10:45:19;;;;;;;;;;;;;;;17.68;54.87;100591.03;5050034;28;830;-58
2022/06/07 10:48:01;;;;;;;;;;;;;;;17.81;54.28;100584.06;5067539;28;945;-58
2022/06/07 10:50:41;;;;;;;;;;;;;;;17.51;54.98;100592.22;5051632;28;871;-58
2022/06/07 10:53:15;;;;;;;;;;;;;;;17.56;54.72;100591.41;5052505;28;1943;-58
2022/06/07 10:55:45;;;;;;;;;;;;;;;17.62;54.74;100576.50;5051321;28;1087;-58
2022/06/07 10:58:30;;;;;;;;;;;;;;;17.40;55.17;100583.25;5065322;28;1186;-58
2022/06/07 11:01:14;;;;;;;;;;;;;;;17.84;54.01;100572.47;5064904;28;1075;-58
2022/06/07 11:03:44;;;;;;;;;;;;;;;17.59;54.64;100575.13;5052414;28;1096;-58
2022/06/07 11:11:45;;;;;;;;;;;;;;;17.58;54.20;100575.44;5054310;28;1914;-58
2022/06/07 11:14:29;;;;;;;;;;;;;;;17.47;54.63;100579.34;5045459;28;1071;-59
2022/06/07 11:17:13;;;;;;;;;;;;;;;17.54;54.51;100583.41;5061385;28;918;-59
2022/06/07 11:19:39;;;;;;;;;;;;;;;17.30;54.80;100575.03;5064442;28;953;-58
2022/06/07 11:22:05;;;;;;;;;;;;;;;17.48;54.36;100570.81;5065470;28;1028;-58
2022/06/07 11:24:35;;;;;;;;;;;;;;;17.38;54.70;100571.69;5050956;28;1028;-59
2022/06/07 11:27:00;;;;;;;;;;;;;;;17.55;54.18;100562.25;5055837;28;1143;-59
2022/06/07 11:29:29;;;;;;;;;;;;;;;17.51;54.31;100564.75;5065700;28;1028;-60
2022/06/07 11:31:54;;;;;;;;;;;;;;;17.54;53.84;100550.41;5047138;28;1979;-61
2022/06/07 11:34:46;;;;;;;;;;;;;;;17.48;54.13;100553.50;5048256;28;1084;-60
2022/06/07 11:37:14;;;;;;;;;;;;;;;17.44;54.01;100543.06;5062133;28;1356;-59
2022/06/07 11:39:40;;;;;;;;;;;;;;;17.70;53.48;100553.09;5062440;28;1222;-59
2022/06/07 11:42:17;;;;;;;;;;;;;;;17.64;53.77;100549.53;5069595;28;1090;-59
2022/06/07 11:44:43;;;;;;;;;;;;;;;17.58;53.74;100536.94;5063940;28;1182;-60
2022/06/07 11:47:13;;;;;;;;;;;;;;;17.41;54.41;100537.34;5065671;28;974;-58
2022/06/07 11:49:44;;;;;;;;;;;;;;;17.80;53.50;100522.75;5066200;28;1118;-58
2022/06/07 11:52:13;;;;;;;;;;;;;;;17.70;53.78;100520.91;5066263;28;1913;-58
2022/06/07 11:54:45;;;;;;;;;;;;;;;17.56;54.18;100506.19;5064790;28;1139;-58
2022/06/07 11:57:30;;;;;;;;;;;;;;;17.87;53.18;100523.22;5048457;28;1234;-60
2022/06/07 11:59:56;;;;;;;;;;;;;;;17.61;54.10;100522.59;5064278;28;1277;-59
2022/06/07 12:02:26;;;;;;;;;;;;;;;17.52;54.12;100527.09;5046823;28;1060;-60
2022/06/07 12:04:57;;;;;;;;;;;;;;;17.73;54.06;100534.06;5067291;28;1083;-59
2022/06/07 12:07:35;;;;;;;;;;;;;;;17.70;53.83;100515.41;5069698;28;1110;-61
2022/06/07 12:10:02;;;;;;;;;;;;;;;17.49;54.52;100511.16;5064434;28;985;-63
2022/06/07 12:12:31;;;;;;;;;;;;;;;17.69;53.99;100513.75;5050795;28;1906;-64
2022/06/07 12:15:09;;;;;;;;;;;;;;;17.51;54.08;100506.19;5068815;28;1147;-63
2022/06/07 12:17:34;;;;;;;;;;;;;;;17.48;54.24;100510.34;5062776;28;931;-65
2022/06/07 12:20:00;;;;;;;;;;;;;;;17.65;53.60;100501.69;5068933;28;1092;-62
2022/06/07 12:22:27;;;;;;;;;;;;;;;17.47;53.93;100496.88;5062856;28;953;-61
2022/06/07 12:24:56;;;;;;;;;;;;;;;17.38;54.36;100492.00;5068557;28;1043;-62
2022/06/07 12:27:26;;;;;;;;;;;;;;;17.55;53.66;100491.59;5066740;28;1146;-59
2022/06/07 12:29:54;;;;;;;;;;;;;;;17.54;54.18;100491.88;5068237;28;996;-59
2022/06/07 12:32:20;;;;;;;;;;;;;;;17.82;53.95;100505.94;5064022;28;1906;-59
2022/06/07 12:34:46;;;;;;;;;;;;;;;17.48;54.97;100493.84;5067648;28;980;-59
2022/06/07 12:37:12;;;;;;;;;;;;;;;17.73;54.52;100494.75;5068624;28;949;-59
2022/06/07 12:39:49;;;;;;;;;;;;;;;17.87;54.20;100503.16;5067692;28;1193;-59
2022/06/07 12:42:15;;;;;;;;;;;;;;;17.49;55.48;100495.50;5067310;28;1039;-58
2022/06/07 12:44:43;;;;;;;;;;;;;;;17.34;55.99;100490.13;5069422;28;1135;-59
2022/06/07 12:47:22;;;;;;;;;;;;;;;17.81;54.80;100488.63;5065005;28;931;-60
2022/06/07 12:49:47;;;;;;;;;;;;;;;17.58;55.21;100487.44;5071728;28;1131;-60
2022/06/07 12:52:14;;;;;;;;;;;;;;;17.80;54.95;100478.75;5057681;28;1980;-61
2022/06/07 12:54:39;;;;;;;;;;;;;;;17.57;55.63;100472.06;5058502;28;1155;-63
2022/06/07 12:57:23;;;;;;;;;;;;;;;17.34;56.07;100465.38;5062300;28;886;-60
2022/06/07 12:59:55;;;;;;;;;;;;;;;17.43;55.95;100480.97;5055588;28;1485;-58
2022/06/07 13:02:22;;;;;;;;;;;;;;;17.60;55.38;100457.75;5067628;28;996;-58
2022/06/07 13:04:51;;;;;;;;;;;;;;;17.59;55.60;100476.16;5059982;28;1505;-62
2022/06/07 13:07:26;;;;;;;;;;;;;;;17.84;55.14;100478.97;5063766;28;1234;-61
2022/06/07 13:09:54;;;;;;;;;;;;;;;17.67;55.47;100491.22;5070770;28;826;-61
2022/06/07 13:12:35;;;;;;;;;;;;;;;17.48;56.13;100476.53;5077115;28;1909;-60
2022/06/07 13:15:04;;;;;;;;;;;;;;;17.62;55.73;100483.03;5057590;28;1183;-59
2022/06/07 13:21:10;;;;;;;;;;;;;;;19.56;60.36;100488.41;5064213;28;1004;-59
2022/06/07 13:23:38;;;;;;;;;;;;;;;19.17;62.84;100509.69;5072106;28;1059;-59
2022/06/07 13:26:15;;;;;;;;;;;;;;;18.76;63.19;100474.41;5046893;28;1175;-61
2022/06/07 13:28:41;;;;;;;;;;;;;;;17.44;59.09;100477.09;5066151;28;1099;-60
2022/06/07 13:31:30;;;;;;;;;;;;;;;15.89;55.87;100476.09;5074378;28;812;-60
2022/06/07 13:34:03;;;;;;;;;;;;;;;15.76;58.74;100482.94;5071568;28;1910;-59